createdAt,value
2023-05-14T00:02:30.409Z,53.47
2023-05-14T00:05:22.470Z,53.63
2023-05-14T00:08:14.482Z,53.64
2023-05-14T00:11:08.903Z,53.77
2023-05-14T00:14:00.893Z,53.71
2023-05-14T00:16:52.939Z,53.82
2023-05-14T00:19:33.670Z,53.71
2023-05-14T00:22:25.728Z,53.85
2023-05-14T00:25:17.686Z,53.99
2023-05-14T00:28:09.658Z,54.07
2023-05-14T00:31:01.696Z,54.33
2023-05-14T00:33:53.829Z,54.31
2023-05-14T00:36:45.806Z,54.39
2023-05-14T00:39:37.875Z,54.39
2023-05-14T00:42:29.875Z,54.63
2023-05-14T00:45:22.201Z,54.68
2023-05-14T00:48:14.651Z,54.74
2023-05-14T00:51:07.271Z,54.88
2023-05-14T00:53:59.557Z,54.87
2023-05-14T00:56:51.788Z,54.95
2023-05-14T00:59:43.779Z,55.15
2023-05-14T01:02:35.843Z,55.31
2023-05-14T01:05:32.159Z,55.31
2023-05-14T01:08:47.674Z,55.31
2023-05-14T01:11:46.395Z,55.48
2023-05-14T01:14:46.249Z,55.47
2023-05-14T01:17:43.354Z,55.59
2023-05-14T01:20:35.971Z,55.60
2023-05-14T01:23:28.084Z,55.67
2023-05-14T01:26:20.844Z,55.70
2023-05-14T01:29:20.594Z,55.68
2023-05-14T01:32:14.441Z,55.75
2023-05-14T01:35:09.026Z,55.81
2023-05-14T01:38:02.770Z,55.84
2023-05-14T01:40:55.999Z,56.04
2023-05-14T01:43:48.516Z,56.03
2023-05-14T01:46:40.632Z,56.15
2023-05-14T01:49:32.721Z,56.21
2023-05-14T01:52:24.724Z,56.22
2023-05-14T01:55:18.319Z,56.23
2023-05-14T01:58:10.585Z,56.42
2023-05-14T02:01:02.621Z,56.49
2023-05-14T02:03:54.691Z,56.55
2023-05-14T02:06:46.695Z,56.54
2023-05-14T02:09:40.020Z,56.76
2023-05-14T02:12:32.047Z,56.70
2023-05-14T02:15:24.012Z,56.83
2023-05-14T02:18:16.056Z,56.99
2023-05-14T02:20:59.517Z,57.07
2023-05-14T02:23:51.600Z,57.07
2023-05-14T02:26:43.601Z,57.17
2023-05-14T02:29:35.583Z,57.05
2023-05-14T02:32:27.730Z,57.07
2023-05-14T02:35:20.123Z,57.31
2023-05-14T02:38:12.232Z,57.32
2023-05-14T02:40:46.599Z,57.35
2023-05-14T02:43:38.622Z,57.35
2023-05-14T02:46:31.521Z,57.49
2023-05-14T02:49:23.578Z,57.48
2023-05-14T02:52:15.695Z,57.40
2023-05-14T02:55:09.201Z,57.53
2023-05-14T02:58:01.177Z,57.49
2023-05-14T03:00:53.531Z,57.52
2023-05-14T03:03:26.024Z,57.57
2023-05-14T03:06:14.622Z,57.69
2023-05-14T03:09:07.117Z,57.81
2023-05-14T03:11:42.107Z,57.64
2023-05-14T03:14:34.242Z,57.82
2023-05-14T03:17:26.360Z,57.95
2023-05-14T03:20:18.416Z,57.96
2023-05-14T03:23:10.518Z,57.99
2023-05-14T03:26:03.750Z,57.96
2023-05-14T03:28:55.952Z,58.05
2023-05-14T03:31:48.081Z,58.30
2023-05-14T03:34:22.487Z,58.25
2023-05-14T03:37:14.491Z,58.28
2023-05-14T03:40:08.256Z,58.49
2023-05-14T03:43:00.255Z,58.47
2023-05-14T03:45:53.115Z,58.47
2023-05-14T03:48:45.171Z,58.72
2023-05-14T03:51:37.236Z,58.58
2023-05-14T03:54:22.555Z,58.78
2023-05-14T03:57:14.532Z,58.84
2023-05-14T03:59:56.489Z,58.89
2023-05-14T04:02:48.591Z,59.09
2023-05-14T04:05:29.410Z,59.06
2023-05-14T04:08:21.434Z,59.22
2023-05-14T04:11:13.387Z,59.17
2023-05-14T04:14:05.568Z,59.23
2023-05-14T04:16:58.961Z,59.22
2023-05-14T04:19:43.470Z,59.26
2023-05-14T04:22:35.558Z,59.36
2023-05-14T04:25:27.754Z,59.13
2023-05-14T04:28:19.813Z,59.24
2023-05-14T04:31:11.893Z,59.17
2023-05-14T04:34:03.885Z,59.26
2023-05-14T04:36:56.002Z,59.35
2023-05-14T04:39:48.038Z,59.36
2023-05-14T04:42:40.041Z,59.35
2023-05-14T04:45:34.332Z,59.40
2023-05-14T04:48:27.750Z,59.53
2023-05-14T04:51:19.665Z,59.47
2023-05-14T04:54:11.754Z,59.54
2023-05-14T04:57:03.781Z,59.58
2023-05-14T04:59:55.810Z,59.45
2023-05-14T05:02:39.389Z,59.51
2023-05-14T05:05:31.465Z,59.52
2023-05-14T05:08:23.641Z,59.68
2023-05-14T05:11:15.647Z,59.76
2023-05-14T05:14:07.726Z,59.69
2023-05-14T05:16:50.691Z,59.69
2023-05-14T05:19:44.276Z,59.49
2023-05-14T05:22:36.627Z,59.36
2023-05-14T05:25:28.868Z,59.25
2023-05-14T05:28:20.858Z,59.22
2023-05-14T05:31:12.993Z,58.27
2023-05-14T05:34:05.977Z,58.07
2023-05-14T05:36:57.927Z,58.32
2023-05-14T05:39:49.892Z,57.71
2023-05-14T05:42:41.854Z,57.19
2023-05-14T05:45:33.981Z,56.95
2023-05-14T05:48:25.882Z,55.45
2023-05-14T05:51:17.864Z,54.52
2023-05-14T05:54:09.814Z,53.25
2023-05-14T05:56:44.348Z,52.41
2023-05-14T05:59:26.321Z,50.74
2023-05-14T06:02:18.354Z,49.79
2023-05-14T06:05:11.808Z,48.29
2023-05-14T06:08:04.672Z,47.11
2023-05-14T06:10:49.884Z,45.80
2023-05-14T06:13:31.831Z,44.51
2023-05-14T06:16:23.903Z,43.67
2023-05-14T06:19:16.038Z,42.83
2023-05-14T06:22:08.410Z,41.96
2023-05-14T06:25:00.331Z,41.17
2023-05-14T06:27:52.285Z,40.03
2023-05-14T06:30:44.273Z,39.74
2023-05-14T06:33:36.270Z,39.15
2023-05-14T06:36:18.390Z,38.84
2023-05-14T06:39:10.883Z,38.65
2023-05-14T06:42:02.900Z,37.94
2023-05-14T06:44:54.935Z,38.10
2023-05-14T06:47:46.942Z,37.92
2023-05-14T06:50:27.793Z,37.88
2023-05-14T06:53:02.217Z,37.46
2023-05-14T06:55:54.335Z,37.25
2023-05-14T06:58:42.738Z,37.40
2023-05-14T07:01:34.740Z,37.39
2023-05-14T07:04:26.717Z,36.79
2023-05-14T07:07:21.083Z,36.73
2023-05-14T07:10:13.282Z,36.69
2023-05-14T07:13:03.248Z,36.38
2023-05-14T07:15:56.025Z,36.72
2023-05-14T07:18:31.138Z,36.87
2023-05-14T07:21:23.256Z,37.02
2023-05-14T07:24:15.302Z,37.29
2023-05-14T07:27:08.563Z,37.44
2023-05-14T07:30:00.556Z,37.50
2023-05-14T07:32:52.822Z,37.41
2023-05-14T07:35:44.832Z,37.67
2023-05-14T07:38:36.958Z,38.08
2023-05-14T07:41:26.233Z,38.54
2023-05-14T07:44:18.331Z,39.04
2023-05-14T07:47:10.740Z,38.93
2023-05-14T07:50:03.419Z,38.75
2023-05-14T07:52:55.475Z,39.00
2023-05-14T07:55:49.532Z,38.71
2023-05-14T07:58:42.138Z,39.08
2023-05-14T08:01:19.389Z,39.20
2023-05-14T08:04:11.865Z,39.46
2023-05-14T08:07:04.011Z,39.49
2023-05-14T08:09:56.017Z,39.42
2023-05-14T08:12:48.015Z,39.59
2023-05-14T08:15:39.976Z,39.89
2023-05-14T08:18:32.104Z,39.78
2023-05-14T08:21:24.116Z,39.75
2023-05-14T08:24:16.206Z,39.85
2023-05-14T08:27:08.380Z,39.73
2023-05-14T08:30:00.410Z,39.14
2023-05-14T08:32:52.851Z,39.33
2023-05-14T08:35:27.876Z,39.42
2023-05-14T08:37:59.840Z,39.02
2023-05-14T08:40:57.725Z,39.25
2023-05-14T08:43:58.064Z,39.05
2023-05-14T08:46:52.921Z,39.07
2023-05-14T08:49:47.468Z,38.92
2023-05-14T08:52:40.504Z,38.67
2023-05-14T08:55:33.377Z,38.44
2023-05-14T08:58:26.687Z,38.57
2023-05-14T09:01:19.921Z,38.64
2023-05-14T09:04:12.681Z,38.64
2023-05-14T09:06:49.831Z,38.70
2023-05-14T09:09:42.070Z,38.46
2023-05-14T09:12:34.104Z,38.18
2023-05-14T09:15:28.934Z,37.84
2023-05-14T09:18:21.352Z,37.18
2023-05-14T09:21:02.713Z,37.50
2023-05-14T09:23:59.656Z,37.49
2023-05-14T09:26:54.258Z,37.25
2023-05-14T09:29:46.246Z,37.23
2023-05-14T09:32:19.083Z,36.88
2023-05-14T09:35:17.595Z,37.00
2023-05-14T09:38:10.327Z,36.94
2023-05-14T09:41:02.544Z,37.07
2023-05-14T09:43:56.833Z,36.44
2023-05-14T09:46:50.000Z,36.24
2023-05-14T09:49:42.399Z,35.85
2023-05-14T09:52:34.382Z,35.86
2023-05-14T09:55:17.696Z,35.75
2023-05-14T09:58:09.816Z,36.20
2023-05-14T10:01:04.237Z,36.34
2023-05-14T10:03:58.620Z,36.22
2023-05-14T10:06:54.277Z,35.61
2023-05-14T10:09:47.481Z,35.57
2023-05-14T10:12:41.753Z,34.84
2023-05-14T10:15:38.705Z,35.50
2023-05-14T10:18:37.561Z,34.87
2023-05-14T10:21:35.015Z,34.70
2023-05-14T10:24:27.863Z,34.59
2023-05-14T10:27:09.327Z,34.30
2023-05-14T10:30:01.587Z,34.45
2023-05-14T10:33:14.375Z,34.51
2023-05-14T10:36:08.894Z,34.08
2023-05-14T10:39:05.080Z,33.64
2023-05-14T10:41:57.177Z,33.91
2023-05-14T10:44:55.975Z,34.38
2023-05-14T10:47:39.251Z,34.18
2023-05-14T10:50:32.349Z,33.99
2023-05-14T10:53:34.258Z,33.32
2023-05-14T10:56:16.246Z,33.15
2023-05-14T10:59:09.142Z,33.12
2023-05-14T11:02:01.120Z,32.87
2023-05-14T11:05:03.565Z,33.29
2023-05-14T11:07:40.171Z,33.34
2023-05-14T11:10:32.266Z,33.23
2023-05-14T11:13:24.351Z,33.23
2023-05-14T11:16:23.367Z,33.48
2023-05-14T11:19:07.008Z,33.15
2023-05-14T11:22:01.210Z,33.01
2023-05-14T11:24:53.509Z,32.57
2023-05-14T11:27:46.899Z,32.85
2023-05-14T11:30:39.048Z,32.47
2023-05-14T11:33:31.396Z,32.80
2023-05-14T11:36:23.512Z,32.72
2023-05-14T11:39:21.646Z,32.38
2023-05-14T11:42:16.737Z,32.66
2023-05-14T11:45:06.287Z,32.76
2023-05-14T11:47:58.406Z,32.90
2023-05-14T11:50:51.440Z,33.08
2023-05-14T11:53:43.516Z,33.27
2023-05-14T11:56:35.607Z,32.76
2023-05-14T11:59:28.927Z,32.82
2023-05-14T12:02:22.849Z,32.94
2023-05-14T12:05:16.494Z,33.40
2023-05-14T12:08:23.368Z,33.25
2023-05-14T12:11:15.339Z,32.97
2023-05-14T12:14:15.992Z,32.97
2023-05-14T12:17:15.030Z,33.12
2023-05-14T12:20:10.382Z,33.56
2023-05-14T12:23:02.378Z,33.40
2023-05-14T12:25:54.552Z,33.67
2023-05-14T12:28:50.133Z,33.69
2023-05-14T12:31:48.252Z,33.43
2023-05-14T12:34:40.714Z,33.22
2023-05-14T12:37:33.277Z,33.27
2023-05-14T12:40:25.629Z,33.27
2023-05-14T12:43:17.900Z,33.25
2023-05-14T12:46:09.951Z,33.29
2023-05-14T12:49:01.997Z,33.41
2023-05-14T12:52:07.789Z,33.25
2023-05-14T12:55:09.934Z,33.29
2023-05-14T12:57:42.030Z,33.35
2023-05-14T13:00:34.037Z,33.69
2023-05-14T13:03:26.448Z,34.00
2023-05-14T13:06:18.592Z,33.62
2023-05-14T13:09:10.597Z,33.48
2023-05-14T13:12:02.908Z,33.24
2023-05-14T13:14:44.497Z,33.34
2023-05-14T13:17:36.922Z,33.31
2023-05-14T13:20:30.959Z,33.44
2023-05-14T13:23:22.960Z,33.37
2023-05-14T13:26:15.339Z,33.52
2023-05-14T13:28:56.233Z,33.48
2023-05-14T13:31:48.250Z,33.63
2023-05-14T13:34:40.254Z,33.80
2023-05-14T13:37:32.185Z,33.75
2023-05-14T13:40:24.327Z,33.94
2023-05-14T13:43:16.973Z,33.94
2023-05-14T13:46:09.862Z,33.92
2023-05-14T13:49:02.113Z,34.14
2023-05-14T13:51:54.270Z,34.37
2023-05-14T13:54:46.276Z,34.79
2023-05-14T13:57:39.720Z,34.98
2023-05-14T14:00:16.147Z,34.90
2023-05-14T14:03:08.689Z,34.85
2023-05-14T14:06:00.968Z,34.84
2023-05-14T14:08:52.994Z,35.15
2023-05-14T14:11:45.024Z,35.09
2023-05-14T14:14:36.994Z,35.22
2023-05-14T14:17:28.998Z,35.17
2023-05-14T14:20:00.819Z,35.26
2023-05-14T14:22:52.842Z,35.51
2023-05-14T14:25:30.394Z,35.50
2023-05-14T14:28:22.402Z,35.90
2023-05-14T14:31:14.654Z,36.06
2023-05-14T14:34:06.673Z,35.99
2023-05-14T14:36:58.661Z,36.15
2023-05-14T14:39:32.785Z,36.12
2023-05-14T14:42:24.780Z,36.33
2023-05-14T14:45:06.661Z,36.24
2023-05-14T14:47:44.503Z,36.40
2023-05-14T14:50:36.603Z,36.64
2023-05-14T14:53:28.649Z,36.76
2023-05-14T14:56:21.226Z,36.78
2023-05-14T14:59:13.218Z,36.83
2023-05-14T15:02:05.591Z,36.83
2023-05-14T15:04:58.100Z,36.84
2023-05-14T15:07:33.272Z,36.70
2023-05-14T15:10:25.453Z,36.80
2023-05-14T15:13:17.624Z,36.82
2023-05-14T15:16:10.130Z,37.44
2023-05-14T15:19:02.161Z,37.49
2023-05-14T15:21:37.358Z,37.34
2023-05-14T15:24:29.398Z,37.11
2023-05-14T15:27:12.681Z,37.00
2023-05-14T15:30:06.279Z,37.18
2023-05-14T15:32:58.329Z,37.43
2023-05-14T15:35:50.281Z,37.24
2023-05-14T15:38:42.280Z,37.18
2023-05-14T15:41:34.423Z,37.17
2023-05-14T15:44:26.420Z,36.96
2023-05-14T15:47:18.288Z,36.88
2023-05-14T15:50:11.719Z,36.76
2023-05-14T15:53:04.047Z,36.91
2023-05-14T15:55:56.400Z,36.98
2023-05-14T15:58:48.449Z,37.30
2023-05-14T16:01:29.286Z,37.55
2023-05-14T16:04:21.317Z,37.69
2023-05-14T16:07:13.390Z,37.69
2023-05-14T16:10:06.005Z,37.95
2023-05-14T16:12:57.979Z,38.15
2023-05-14T16:15:50.042Z,38.13
2023-05-14T16:18:43.220Z,38.25
2023-05-14T16:21:35.372Z,38.81
2023-05-14T16:24:27.448Z,38.84
2023-05-14T16:27:19.534Z,38.74
2023-05-14T16:30:12.780Z,38.90
2023-05-14T16:32:50.200Z,38.85
2023-05-14T16:35:42.313Z,38.87
2023-05-14T16:38:35.538Z,38.75
2023-05-14T16:41:22.616Z,39.07
2023-05-14T16:44:14.659Z,38.88
2023-05-14T16:47:07.306Z,39.09
2023-05-14T16:49:59.275Z,39.28
2023-05-14T16:52:51.322Z,39.23
2023-05-14T16:55:43.337Z,39.32
2023-05-14T16:58:35.367Z,39.54
2023-05-14T17:01:27.398Z,39.71
2023-05-14T17:04:16.072Z,39.75
2023-05-14T17:07:08.474Z,39.81
2023-05-14T17:10:00.694Z,39.71
2023-05-14T17:12:35.760Z,39.89
2023-05-14T17:15:18.165Z,40.07
2023-05-14T17:18:11.929Z,40.02
2023-05-14T17:21:05.781Z,40.20
2023-05-14T17:23:58.094Z,40.05
2023-05-14T17:26:30.378Z,39.98
2023-05-14T17:29:22.344Z,40.34
2023-05-14T17:32:14.339Z,40.39
2023-05-14T17:35:07.110Z,40.42
2023-05-14T17:37:42.853Z,40.22
2023-05-14T17:40:34.997Z,40.50
2023-05-14T17:43:27.042Z,40.57
2023-05-14T17:46:19.136Z,40.72
2023-05-14T17:49:11.784Z,40.68
2023-05-14T17:52:04.467Z,40.76
2023-05-14T17:54:56.438Z,40.83
2023-05-14T17:57:48.563Z,40.74
2023-05-14T18:00:40.733Z,40.80
2023-05-14T18:03:32.828Z,40.98
2023-05-14T18:06:24.889Z,41.35
2023-05-14T18:09:16.842Z,41.43
2023-05-14T18:12:10.065Z,42.47
2023-05-14T18:15:02.060Z,43.72
2023-05-14T18:17:50.114Z,44.74
2023-05-14T18:20:42.183Z,46.38
2023-05-14T18:23:34.177Z,47.31
2023-05-14T18:26:26.637Z,47.73
2023-05-14T18:29:01.468Z,48.34
2023-05-14T18:36:15.351Z,48.31
2023-05-14T18:39:07.482Z,49.06
2023-05-14T18:41:59.564Z,49.69
2023-05-14T18:44:51.496Z,50.44
2023-05-14T18:47:43.607Z,51.31
2023-05-14T18:50:18.380Z,51.90
2023-05-14T18:53:10.500Z,52.59
2023-05-14T18:56:03.495Z,52.87
2023-05-14T18:58:56.240Z,53.38
2023-05-14T19:01:48.329Z,53.34
2023-05-14T19:04:51.165Z,53.82
2023-05-14T19:07:43.944Z,54.47
2023-05-14T19:10:35.974Z,54.89
2023-05-14T19:13:30.158Z,55.16
2023-05-14T19:16:22.318Z,55.55
2023-05-14T19:19:14.946Z,55.85
2023-05-14T19:22:07.238Z,56.16
2023-05-14T19:24:59.312Z,56.65
2023-05-14T19:27:53.570Z,56.67
2023-05-14T19:30:45.595Z,56.64
2023-05-14T19:33:37.535Z,56.90
2023-05-14T19:36:31.472Z,57.16
2023-05-14T19:39:08.957Z,57.30
2023-05-14T19:42:00.987Z,57.47
2023-05-14T19:44:53.046Z,57.52
2023-05-14T19:47:45.094Z,57.73
2023-05-14T19:50:37.794Z,57.86
2023-05-14T19:53:30.599Z,58.07
2023-05-14T19:56:05.642Z,58.07
2023-05-14T19:58:57.680Z,58.25
2023-05-14T20:01:49.725Z,58.50
2023-05-14T20:04:26.049Z,58.78
2023-05-14T20:07:03.780Z,58.95
2023-05-14T20:09:55.782Z,59.17
2023-05-14T20:12:47.732Z,59.39
2023-05-14T20:15:22.346Z,59.36
2023-05-14T20:18:14.487Z,59.74
2023-05-14T20:20:58.130Z,59.84
2023-05-14T20:23:50.141Z,59.92
2023-05-14T20:26:42.165Z,60.09
2023-05-14T20:29:22.907Z,60.20
2023-05-14T20:32:15.543Z,60.50
2023-05-14T20:35:08.945Z,60.61
2023-05-14T20:38:02.094Z,60.84
2023-05-14T20:40:36.972Z,60.93
2023-05-14T20:43:30.263Z,61.19
2023-05-14T20:46:22.397Z,61.33
2023-05-14T20:49:14.399Z,61.45
2023-05-14T20:52:07.021Z,61.42
2023-05-14T20:55:00.854Z,61.65
2023-05-14T20:57:53.916Z,61.76
2023-05-14T21:00:45.912Z,61.92
2023-05-14T21:03:38.136Z,62.07
2023-05-14T21:06:30.175Z,62.17
2023-05-14T21:09:23.678Z,62.20
2023-05-14T21:12:15.790Z,62.11
2023-05-14T21:15:09.338Z,62.12
2023-05-14T21:18:02.612Z,62.18
2023-05-14T21:20:54.601Z,62.25
2023-05-14T21:23:46.619Z,62.36
2023-05-14T21:26:40.353Z,62.48
2023-05-14T21:29:32.382Z,62.47
2023-05-14T21:32:24.415Z,62.56
2023-05-14T21:35:16.784Z,62.56
2023-05-14T21:38:09.838Z,62.69
2023-05-14T21:40:44.767Z,62.87
2023-05-14T21:43:26.919Z,62.73
2023-05-14T21:46:19.129Z,62.70
2023-05-14T21:48:54.046Z,62.92
2023-05-14T21:51:46.673Z,63.02
2023-05-14T21:54:38.731Z,63.24
2023-05-14T21:57:34.077Z,63.43
2023-05-14T22:00:26.600Z,63.74
2023-05-14T22:03:18.706Z,63.78
2023-05-14T22:06:10.838Z,63.71
2023-05-14T22:09:03.036Z,63.79
2023-05-14T22:11:55.533Z,63.73
2023-05-14T22:14:47.699Z,63.54
2023-05-14T22:17:39.934Z,63.61
2023-05-14T22:20:31.958Z,63.63
2023-05-14T22:23:23.963Z,63.61
2023-05-14T22:26:15.977Z,63.85
2023-05-14T22:29:07.971Z,63.96
2023-05-14T22:31:59.995Z,63.83
2023-05-14T22:34:52.542Z,63.71
2023-05-14T22:37:44.572Z,63.80
2023-05-14T22:40:36.522Z,63.54
2023-05-14T22:43:28.470Z,63.53
2023-05-14T22:46:21.097Z,63.43
2023-05-14T22:49:13.340Z,63.41
2023-05-14T22:52:05.798Z,63.23
2023-05-14T22:54:50.830Z,63.21
2023-05-14T22:57:42.939Z,63.36
2023-05-14T23:00:35.047Z,63.86
2023-05-14T23:03:09.612Z,63.23
2023-05-14T23:06:01.598Z,63.41
2023-05-14T23:08:53.852Z,63.77
2023-05-14T23:11:46.094Z,63.90
2023-05-14T23:14:38.084Z,63.38
2023-05-14T23:17:30.239Z,63.68
2023-05-14T23:20:22.337Z,63.66
2023-05-14T23:23:14.276Z,63.69
2023-05-14T23:26:06.735Z,64.08
2023-05-14T23:28:58.690Z,64.05
2023-05-14T23:31:50.707Z,63.97
2023-05-14T23:34:42.819Z,63.99
2023-05-14T23:37:36.796Z,64.55
2023-05-14T23:40:28.755Z,64.68
2023-05-14T23:43:20.747Z,64.87
2023-05-14T23:46:13.083Z,64.83
2023-05-14T23:49:05.218Z,64.70
2023-05-14T23:51:57.592Z,64.93
2023-05-14T23:54:49.556Z,65.40
2023-05-14T23:57:42.022Z,65.39
